Página principal
METAR-TAF:

METAR-TAF

Aeroportos :

Irkutsk, Rússia

latitude: 52-16N, longitude: 104-19E, altura: 513 m

Observação actual do tempo

O boletim foi feito há 23 minutos, às 00:30 UTC
Vento 6 kt de este
Temperatura -25°C
Humidade 76%
Pressão 1019 hPa
Visibilidade 10 km ou mais
sem nuvens abaixo de 1500 metros e sem cumulonimbus

METAR: UIII 230030Z 10003MPS CAVOK M25/M28 Q1019 R12/820550 NOSIG RMK QFE722/0963

Hora: 08:53 (00:53 UTC)

Previsão

O boletim foi feito há 1 hora e 53 minutos, às 23:00 UTC
Previsão válida de 23 às 00 UTC a 23 às 24 UTC
Vento 6 kt de su-sudeste
Visibilidade 10 km ou mais
Temporariamente
de 23 às 00 UTC a 23 às 02 UTC
Visibilidade: 0900 m
a uma altura de 200 ft
nevoeiro gelado

TAF: UIII 222300Z 2300/2324 16003MPS 9999 NSC TEMPO 2300/2302 0900 FZFG VV002

Observações e previsões do tempo de mais de 4000 aeroportos (mensagens METAR e TAF).

As estações disponíveis são os pontos amarelos e vermelhos sobre o mapa.

Mova o rato sobre o mapa para ver o nome da estação.

Depois clique no ponto para visualizar as observações e previsões meteorológicas.

Para alterar o mapa : clique nos botões verdes com uma cruz preta para aumentar o zoom; no botão verde com uma pitada de zoom; ou nas setas verdes para mapas adjacentes.


METAR-TAF: